createdAt,value
2022-10-18T00:00:26.294Z,70.33
2022-10-18T00:01:58.381Z,72.03
2022-10-18T00:03:31.549Z,71.03
2022-10-18T00:05:04.899Z,79.40
2022-10-18T00:06:41.134Z,72.70
2022-10-18T00:08:17.234Z,65.07
2022-10-18T00:09:50.285Z,64.90
2022-10-18T00:11:23.419Z,62.47
2022-10-18T00:12:56.501Z,58.93
2022-10-18T00:14:31.009Z,64.27
2022-10-18T00:16:10.864Z,64.53
2022-10-18T00:17:44.474Z,61.73
2022-10-18T00:19:17.543Z,59.40
2022-10-18T00:20:59.064Z,64.03
2022-10-18T00:22:32.710Z,66.90
2022-10-18T00:24:06.831Z,63.37
2022-10-18T00:25:39.896Z,65.90
2022-10-18T00:27:12.955Z,63.93
2022-10-18T00:28:46.426Z,69.90
2022-10-18T00:30:20.908Z,79.43
2022-10-18T00:31:53.984Z,67.63
2022-10-18T00:33:27.021Z,70.43
2022-10-18T00:35:00.037Z,68.10
2022-10-18T00:36:35.198Z,67.70
2022-10-18T00:38:08.265Z,75.47
2022-10-18T00:39:41.710Z,72.53
2022-10-18T00:41:16.870Z,84.97
2022-10-18T00:42:49.950Z,83.07
2022-10-18T00:45:00.662Z,79.30
2022-10-18T00:46:36.691Z,80.17
2022-10-18T00:48:09.895Z,81.47
2022-10-18T00:49:46.288Z,81.30
2022-10-18T00:51:21.894Z,83.97
2022-10-18T00:52:58.389Z,86.07
2022-10-18T00:54:32.626Z,80.73
2022-10-18T00:56:06.349Z,86.90
2022-10-18T00:57:40.311Z,87.80
2022-10-18T00:59:15.010Z,93.80
2022-10-18T01:00:48.382Z,85.00
2022-10-18T01:02:22.251Z,86.57
2022-10-18T01:03:55.823Z,84.37
2022-10-18T01:05:29.209Z,85.37
2022-10-18T01:07:09.036Z,85.03
2022-10-18T01:09:03.570Z,81.97
2022-10-18T01:10:44.731Z,83.23
2022-10-18T01:12:25.685Z,86.70
2022-10-18T01:14:11.545Z,88.50
2022-10-18T01:15:51.712Z,84.40
2022-10-18T01:17:33.431Z,83.57
2022-10-18T01:19:19.697Z,81.53
2022-10-18T01:21:09.129Z,80.40
2022-10-18T01:22:46.413Z,75.97
2022-10-18T01:25:00.435Z,81.97
2022-10-18T01:26:44.617Z,76.73
2022-10-18T01:28:33.113Z,76.40
2022-10-18T01:30:33.343Z,81.33
2022-10-18T01:32:11.442Z,84.60
2022-10-18T01:33:49.309Z,82.00
2022-10-18T01:35:26.512Z,80.60
2022-10-18T01:37:02.259Z,77.10
2022-10-18T01:38:37.882Z,82.27
2022-10-18T01:40:15.283Z,76.97
2022-10-18T01:41:50.259Z,66.60
2022-10-18T01:43:25.302Z,64.37
2022-10-18T01:44:58.384Z,59.70
2022-10-18T01:46:34.374Z,63.60
2022-10-18T01:48:07.082Z,71.10
2022-10-18T01:49:40.145Z,74.57
2022-10-18T01:51:13.322Z,71.50
2022-10-18T01:52:49.940Z,61.77
2022-10-18T01:54:26.606Z,57.23
2022-10-18T01:56:36.393Z,64.90
2022-10-18T01:58:20.038Z,67.77
2022-10-18T01:59:59.150Z,69.47
2022-10-18T02:01:43.420Z,76.77
2022-10-18T02:03:22.134Z,56.87
2022-10-18T02:05:02.465Z,65.83
2022-10-18T02:06:41.471Z,63.43
2022-10-18T02:08:24.709Z,66.90
2022-10-18T02:10:09.278Z,71.47
2022-10-18T02:11:43.951Z,66.13
2022-10-18T02:13:19.744Z,65.73
2022-10-18T02:14:53.997Z,63.33
2022-10-18T02:16:32.993Z,74.03
2022-10-18T02:18:12.388Z,84.30
2022-10-18T02:19:46.537Z,86.00
2022-10-18T02:21:22.169Z,95.37
2022-10-18T02:22:58.543Z,99.20
2022-10-18T02:24:36.952Z,89.80
2022-10-18T02:26:10.094Z,107.03
2022-10-18T02:27:43.159Z,113.90
2022-10-18T02:29:16.732Z,108.07
2022-10-18T02:31:05.111Z,112.17
2022-10-18T02:32:42.043Z,111.27
2022-10-18T02:34:21.502Z,107.57
2022-10-18T02:35:59.705Z,107.63
2022-10-18T02:37:36.476Z,107.33
2022-10-18T02:39:14.301Z,108.57
2022-10-18T02:40:47.323Z,90.10
2022-10-18T02:42:20.535Z,87.47
2022-10-18T02:43:53.819Z,90.77
2022-10-18T02:45:27.639Z,89.17
2022-10-18T02:47:00.141Z,89.73
2022-10-18T02:48:33.207Z,83.17
2022-10-18T02:50:08.240Z,88.87
2022-10-18T02:51:41.299Z,83.67
2022-10-18T02:53:13.345Z,92.23
2022-10-18T02:54:46.400Z,87.00
2022-10-18T02:56:19.488Z,78.10
2022-10-18T02:57:52.536Z,73.93
2022-10-18T02:59:24.637Z,75.57
2022-10-18T03:00:57.963Z,71.53
2022-10-18T03:02:30.971Z,67.40
2022-10-18T03:04:03.772Z,65.73
2022-10-18T03:05:38.185Z,74.33
2022-10-18T03:07:11.381Z,85.23
2022-10-18T03:08:44.411Z,81.03
2022-10-18T03:10:17.508Z,90.63
2022-10-18T03:11:50.575Z,86.93
2022-10-18T03:13:22.720Z,92.17
2022-10-18T03:14:55.760Z,83.27
2022-10-18T03:16:28.872Z,81.17
2022-10-18T03:18:01.926Z,89.53
2022-10-18T03:19:34.995Z,96.30
2022-10-18T03:21:09.850Z,94.13
2022-10-18T03:22:41.914Z,92.50
2022-10-18T03:24:14.963Z,88.10
2022-10-18T03:25:47.115Z,85.57
2022-10-18T03:27:20.208Z,83.33
2022-10-18T03:28:53.321Z,77.83
2022-10-18T03:30:25.448Z,88.63
2022-10-18T03:31:58.517Z,80.60
2022-10-18T03:33:31.864Z,86.00
2022-10-18T03:35:04.270Z,87.90
2022-10-18T03:36:41.383Z,81.00
2022-10-18T03:38:14.435Z,88.30
2022-10-18T03:39:47.498Z,86.17
2022-10-18T03:41:20.779Z,88.90
2022-10-18T03:42:53.868Z,79.87
2022-10-18T03:44:26.898Z,88.27
2022-10-18T03:45:58.965Z,90.37
2022-10-18T03:47:32.027Z,96.33
2022-10-18T03:49:05.250Z,90.50
2022-10-18T03:50:37.304Z,91.33
2022-10-18T03:52:11.760Z,83.47
2022-10-18T03:53:43.820Z,77.27
2022-10-18T03:55:16.977Z,89.50
2022-10-18T03:56:50.008Z,88.03
2022-10-18T03:58:24.120Z,85.10
2022-10-18T03:59:57.178Z,80.80
2022-10-18T04:01:30.250Z,77.77
2022-10-18T04:03:03.361Z,85.70
2022-10-18T04:04:36.435Z,84.40
2022-10-18T04:06:09.988Z,85.43
2022-10-18T04:07:43.504Z,86.63
2022-10-18T04:09:16.668Z,83.57
2022-10-18T04:10:49.792Z,78.13
2022-10-18T04:12:21.841Z,80.57
2022-10-18T04:13:54.848Z,75.97
2022-10-18T04:15:27.912Z,77.80
2022-10-18T04:17:00.969Z,78.27
2022-10-18T04:18:34.060Z,78.33
2022-10-18T04:20:07.259Z,76.90
2022-10-18T04:21:40.533Z,81.83
2022-10-18T04:23:14.921Z,78.53
2022-10-18T04:24:47.997Z,80.50
2022-10-18T04:26:21.040Z,71.27
2022-10-18T04:27:54.236Z,74.73
2022-10-18T04:29:27.377Z,76.67
2022-10-18T04:31:00.407Z,71.40
2022-10-18T04:32:35.016Z,78.23
2022-10-18T04:34:08.037Z,78.90
2022-10-18T04:35:40.098Z,81.27
2022-10-18T04:37:13.285Z,79.73
2022-10-18T04:38:47.791Z,84.23
2022-10-18T04:40:21.139Z,79.20
2022-10-18T04:41:54.375Z,76.30
2022-10-18T04:43:27.540Z,76.93
2022-10-18T04:45:00.615Z,74.13
2022-10-18T04:46:33.681Z,75.40
2022-10-18T04:48:07.317Z,74.30
2022-10-18T04:49:40.360Z,72.57
2022-10-18T04:51:13.399Z,76.10
2022-10-18T04:52:46.462Z,74.03
2022-10-18T04:54:22.795Z,76.37
2022-10-18T04:55:58.201Z,71.03
2022-10-18T04:57:31.411Z,68.07
2022-10-18T04:59:04.819Z,66.10
2022-10-18T05:00:40.013Z,65.30
2022-10-18T05:02:13.367Z,62.03
2022-10-18T05:03:46.679Z,63.10
2022-10-18T05:05:19.714Z,59.00
2022-10-18T05:06:52.799Z,58.23
2022-10-18T05:08:24.931Z,52.90
2022-10-18T05:09:59.352Z,52.07
2022-10-18T05:11:32.396Z,50.63
2022-10-18T05:13:05.741Z,47.63
2022-10-18T05:14:38.747Z,49.20
2022-10-18T05:16:11.929Z,47.30
2022-10-18T05:17:45.058Z,44.23
2022-10-18T05:19:18.271Z,47.57
2022-10-18T05:20:51.283Z,46.47
2022-10-18T05:22:24.432Z,45.20
2022-10-18T05:23:57.480Z,45.03
2022-10-18T05:25:31.977Z,42.03
2022-10-18T05:27:05.137Z,47.07
2022-10-18T05:28:40.202Z,44.50
2022-10-18T05:30:13.941Z,46.73
2022-10-18T05:31:46.990Z,56.77
2022-10-18T05:33:20.034Z,50.27
2022-10-18T05:34:53.091Z,53.57
2022-10-18T05:36:26.543Z,51.13
2022-10-18T05:37:58.605Z,51.97
2022-10-18T05:39:31.718Z,52.63
2022-10-18T05:41:07.010Z,58.70
2022-10-18T05:42:40.076Z,60.67
2022-10-18T05:44:13.109Z,55.10
2022-10-18T05:45:49.660Z,61.80
2022-10-18T05:47:22.749Z,55.93
2022-10-18T05:48:55.832Z,59.20
2022-10-18T05:50:28.894Z,55.13
2022-10-18T05:52:01.927Z,54.47
2022-10-18T05:53:37.974Z,53.17
2022-10-18T05:55:11.419Z,52.70
2022-10-18T05:56:45.875Z,53.33
2022-10-18T05:58:18.985Z,54.10
2022-10-18T05:59:52.059Z,54.27
2022-10-18T06:01:25.126Z,52.00
2022-10-18T06:03:00.273Z,58.27
2022-10-18T06:04:34.802Z,53.27
2022-10-18T06:06:09.281Z,51.40
2022-10-18T06:07:42.373Z,48.50
2022-10-18T06:09:15.414Z,49.50
2022-10-18T06:10:47.529Z,49.47
2022-10-18T06:12:21.938Z,45.73
2022-10-18T06:13:55.007Z,45.67
2022-10-18T06:15:28.426Z,45.90
2022-10-18T06:17:01.462Z,46.90
2022-10-18T06:18:34.726Z,44.37
2022-10-18T06:20:09.015Z,43.17
2022-10-18T06:21:42.118Z,40.93
2022-10-18T06:23:15.176Z,44.30
2022-10-18T06:24:48.372Z,44.10
2022-10-18T06:26:21.942Z,46.37
2022-10-18T06:27:56.508Z,46.80
2022-10-18T06:29:29.537Z,44.57
2022-10-18T06:31:02.896Z,41.67
2022-10-18T06:32:35.946Z,45.90
2022-10-18T06:34:09.033Z,43.30
2022-10-18T06:35:42.111Z,39.43
2022-10-18T06:37:15.152Z,40.37
2022-10-18T06:38:48.175Z,37.93
2022-10-18T06:40:21.350Z,42.23
2022-10-18T06:41:54.588Z,38.53
2022-10-18T06:43:29.500Z,41.27
2022-10-18T06:45:03.320Z,40.80
2022-10-18T06:46:36.395Z,40.53
2022-10-18T06:48:09.470Z,45.27
2022-10-18T06:49:42.549Z,41.27
2022-10-18T06:51:16.262Z,42.73
2022-10-18T06:52:51.166Z,41.40
2022-10-18T06:54:24.215Z,40.83
2022-10-18T06:56:00.727Z,43.07
2022-10-18T06:57:33.775Z,40.23
2022-10-18T06:59:08.239Z,44.60
2022-10-18T07:00:41.333Z,44.80
2022-10-18T07:02:17.229Z,43.70
2022-10-18T07:03:53.373Z,44.17
2022-10-18T07:05:26.512Z,44.90
2022-10-18T07:06:59.650Z,44.00
2022-10-18T07:08:33.134Z,45.37
2022-10-18T07:10:07.353Z,44.20
2022-10-18T07:11:40.435Z,43.17
2022-10-18T07:13:31.368Z,40.67
2022-10-18T07:15:09.491Z,43.23
2022-10-18T07:16:42.734Z,43.73
2022-10-18T07:18:16.008Z,43.30
2022-10-18T07:19:49.066Z,42.47
2022-10-18T07:21:23.713Z,40.50
2022-10-18T07:22:57.364Z,39.90
2022-10-18T07:24:30.508Z,40.60
2022-10-18T07:26:05.085Z,39.80
2022-10-18T07:27:38.863Z,39.03
2022-10-18T07:29:13.164Z,41.93
2022-10-18T07:30:47.816Z,39.80
2022-10-18T07:32:21.077Z,42.63
2022-10-18T07:33:54.600Z,38.83
2022-10-18T07:35:27.680Z,40.37
2022-10-18T07:37:02.542Z,42.93
2022-10-18T07:38:36.267Z,37.00
2022-10-18T07:40:11.798Z,40.23
2022-10-18T07:41:44.893Z,36.70
2022-10-18T07:43:17.952Z,38.57
2022-10-18T07:44:50.994Z,34.77
2022-10-18T07:46:25.704Z,40.23
2022-10-18T07:47:59.049Z,36.20
2022-10-18T07:49:32.333Z,35.27
2022-10-18T07:51:05.595Z,34.50
2022-10-18T07:52:38.854Z,37.37
2022-10-18T07:54:11.908Z,37.23
2022-10-18T07:55:45.628Z,32.73
2022-10-18T07:57:18.690Z,34.83
2022-10-18T07:58:53.805Z,34.03
2022-10-18T08:00:26.865Z,32.63
2022-10-18T08:02:01.431Z,36.77
2022-10-18T08:03:34.569Z,36.97
2022-10-18T08:05:08.055Z,34.30
2022-10-18T08:06:41.126Z,36.70
2022-10-18T08:08:14.208Z,36.20
2022-10-18T08:09:47.279Z,36.13
2022-10-18T08:11:22.454Z,34.90
2022-10-18T08:12:55.580Z,35.90
2022-10-18T08:14:28.656Z,35.33
2022-10-18T08:16:02.366Z,36.37
2022-10-18T08:17:36.840Z,37.00
2022-10-18T08:19:09.873Z,36.27
2022-10-18T08:20:45.039Z,35.33
2022-10-18T08:22:18.090Z,34.90
2022-10-18T08:23:51.419Z,35.97
2022-10-18T08:25:24.532Z,35.50
2022-10-18T08:26:57.628Z,34.27
2022-10-18T08:28:31.028Z,35.13
2022-10-18T08:30:04.309Z,36.70
2022-10-18T08:31:37.553Z,36.87
2022-10-18T08:33:12.022Z,36.53
2022-10-18T08:34:45.164Z,39.80
2022-10-18T08:36:19.684Z,34.90
2022-10-18T08:37:52.795Z,36.27
2022-10-18T08:39:25.948Z,34.23
2022-10-18T08:41:01.063Z,35.67
2022-10-18T08:42:54.848Z,37.70
2022-10-18T08:44:29.051Z,38.10
2022-10-18T08:46:02.256Z,37.50
2022-10-18T08:47:38.581Z,36.53
2022-10-18T08:49:22.284Z,36.40
2022-10-18T08:50:57.273Z,31.20
2022-10-18T08:52:35.572Z,34.67
2022-10-18T08:54:13.189Z,33.90
2022-10-18T08:55:52.461Z,34.37
2022-10-18T08:57:25.671Z,37.83
2022-10-18T08:58:58.750Z,33.63
2022-10-18T09:00:35.828Z,33.00
2022-10-18T09:02:21.893Z,35.57
2022-10-18T09:04:25.356Z,31.43
2022-10-18T09:06:11.832Z,31.57
2022-10-18T09:08:00.615Z,34.87
2022-10-18T09:09:41.676Z,33.70
2022-10-18T09:11:37.547Z,33.10
2022-10-18T09:13:39.913Z,34.77
2022-10-18T09:15:19.191Z,35.07
2022-10-18T09:17:05.141Z,32.97
2022-10-18T09:18:49.664Z,35.40
2022-10-18T09:20:28.469Z,35.80
2022-10-18T09:22:13.137Z,36.20
2022-10-18T09:23:49.361Z,31.83
2022-10-18T09:25:24.735Z,35.43
2022-10-18T09:27:05.717Z,29.00
2022-10-18T09:28:57.619Z,31.43
2022-10-18T09:30:50.760Z,28.77
2022-10-18T09:32:33.464Z,29.67
2022-10-18T09:34:13.627Z,27.00
2022-10-18T09:35:55.687Z,27.70
2022-10-18T09:37:33.436Z,27.10
2022-10-18T09:39:11.981Z,28.50
2022-10-18T09:40:53.440Z,26.33
2022-10-18T09:42:31.808Z,27.43
2022-10-18T09:44:11.889Z,25.83
2022-10-18T09:45:46.647Z,29.73
2022-10-18T09:47:22.792Z,30.37
2022-10-18T09:49:00.254Z,25.63
2022-10-18T09:50:38.302Z,25.33
2022-10-18T09:52:19.772Z,24.40
2022-10-18T09:54:18.145Z,24.33
2022-10-18T09:55:58.143Z,25.90
2022-10-18T09:57:36.860Z,25.53
2022-10-18T09:59:30.929Z,24.13
2022-10-18T10:01:03.963Z,26.90
2022-10-18T10:02:37.064Z,24.50
2022-10-18T10:04:10.171Z,27.37
2022-10-18T10:05:43.944Z,25.67
2022-10-18T10:07:20.276Z,25.27
2022-10-18T10:09:00.711Z,24.23
2022-10-18T10:10:36.311Z,24.60
2022-10-18T10:12:29.229Z,24.30
2022-10-18T10:15:55.697Z,28.40
2022-10-18T10:17:31.972Z,25.77
2022-10-18T10:19:05.262Z,26.57
2022-10-18T10:20:46.065Z,26.23
2022-10-18T10:22:28.501Z,27.80
2022-10-18T10:24:01.765Z,28.87
2022-10-18T10:25:38.683Z,28.40
2022-10-18T10:27:19.230Z,28.40
2022-10-18T10:28:52.753Z,26.53
2022-10-18T10:30:28.441Z,26.90
2022-10-18T10:32:03.928Z,24.97
2022-10-18T10:33:39.063Z,28.23
2022-10-18T10:35:33.791Z,23.30
2022-10-18T10:37:34.995Z,25.83
2022-10-18T10:39:12.800Z,28.33
2022-10-18T10:40:51.068Z,23.77
2022-10-18T10:42:24.105Z,25.37
2022-10-18T10:43:57.600Z,25.30
2022-10-18T10:45:34.564Z,27.83
2022-10-18T10:47:08.144Z,25.73
2022-10-18T10:48:48.653Z,26.67
2022-10-18T10:50:26.179Z,25.60
2022-10-18T10:52:09.305Z,27.53
2022-10-18T10:54:01.003Z,28.70
2022-10-18T10:55:37.511Z,26.47
2022-10-18T10:57:24.223Z,28.97
2022-10-18T10:59:01.337Z,27.90
2022-10-18T11:00:43.128Z,29.70
2022-10-18T11:02:22.571Z,34.53
2022-10-18T11:03:57.824Z,34.33
2022-10-18T11:05:30.916Z,35.63
2022-10-18T11:07:14.113Z,36.00
2022-10-18T11:08:51.608Z,38.50
2022-10-18T11:10:28.276Z,41.47
2022-10-18T11:12:10.085Z,36.93
2022-10-18T11:13:56.947Z,40.90
2022-10-18T11:15:48.337Z,46.07
2022-10-18T11:17:28.646Z,39.73
2022-10-18T11:19:11.254Z,41.83
2022-10-18T11:20:48.559Z,44.87
2022-10-18T11:22:24.821Z,43.57
2022-10-18T11:23:59.701Z,43.23
2022-10-18T11:26:03.021Z,39.83
2022-10-18T11:27:40.131Z,41.37
2022-10-18T11:29:31.841Z,40.90
2022-10-18T11:31:13.813Z,38.60
2022-10-18T11:32:53.536Z,40.43
2022-10-18T11:34:50.303Z,37.60
2022-10-18T11:36:33.020Z,37.93
2022-10-18T11:38:22.772Z,37.77
2022-10-18T11:40:01.716Z,39.23
2022-10-18T11:41:40.619Z,41.87
2022-10-18T11:43:20.482Z,44.87
2022-10-18T11:45:07.073Z,40.23
2022-10-18T11:46:58.085Z,40.27
2022-10-18T11:48:48.694Z,40.40
2022-10-18T11:50:31.156Z,39.50
2022-10-18T11:52:12.373Z,37.10
2022-10-18T11:53:59.304Z,33.60
2022-10-18T11:55:42.202Z,33.87
2022-10-18T11:57:30.002Z,32.00
2022-10-18T11:59:21.597Z,29.73
2022-10-18T12:00:59.414Z,28.50
2022-10-18T12:03:04.533Z,29.80
2022-10-18T12:04:49.138Z,28.93
2022-10-18T12:06:37.464Z,28.17
2022-10-18T12:08:16.285Z,30.00
2022-10-18T12:09:53.277Z,28.57
2022-10-18T12:11:31.314Z,25.20
2022-10-18T12:13:08.873Z,22.13
2022-10-18T12:14:47.448Z,23.43
2022-10-18T12:16:45.535Z,23.23
2022-10-18T12:18:21.347Z,19.33
2022-10-18T12:19:58.244Z,20.40
2022-10-18T12:21:34.381Z,18.30
2022-10-18T12:23:13.115Z,16.70
2022-10-18T12:24:46.128Z,17.97
2022-10-18T12:26:20.055Z,18.03
2022-10-18T12:29:48.054Z,17.77
2022-10-18T12:31:29.970Z,14.43
2022-10-18T12:33:27.156Z,15.17
2022-10-18T12:35:04.401Z,14.30
2022-10-18T12:37:15.726Z,15.00
2022-10-18T12:38:51.770Z,16.80
2022-10-18T12:40:31.179Z,16.03
2022-10-18T12:42:04.370Z,14.30
2022-10-18T12:43:37.841Z,15.83
2022-10-18T12:45:33.090Z,13.27
2022-10-18T12:47:07.970Z,14.70
2022-10-18T12:48:43.732Z,13.33
2022-10-18T12:50:31.129Z,16.37
2022-10-18T12:52:07.610Z,14.57
2022-10-18T12:53:42.226Z,14.47
2022-10-18T12:55:32.463Z,14.33
2022-10-18T12:57:07.216Z,13.43
2022-10-18T12:58:40.265Z,14.30
2022-10-18T13:00:53.677Z,13.90
2022-10-18T13:02:30.591Z,11.30
2022-10-18T13:04:04.860Z,10.93
2022-10-18T13:05:57.803Z,11.10
2022-10-18T13:07:43.229Z,8.43
2022-10-18T13:09:21.807Z,9.53
2022-10-18T13:11:29.952Z,12.43
2022-10-18T13:13:39.320Z,11.50
2022-10-18T13:15:35.708Z,12.13
2022-10-18T13:17:22.641Z,11.30
2022-10-18T13:18:59.619Z,11.57
2022-10-18T13:20:39.244Z,10.33
2022-10-18T13:22:28.386Z,12.67
2022-10-18T13:24:22.414Z,11.23
2022-10-18T13:26:05.354Z,8.50
2022-10-18T13:27:45.882Z,8.93
2022-10-18T13:29:58.860Z,10.23
2022-10-18T13:31:40.914Z,12.23
2022-10-18T13:33:33.725Z,10.63
2022-10-18T13:35:47.401Z,6.87
2022-10-18T13:37:24.993Z,7.80
2022-10-18T13:39:04.969Z,6.00
2022-10-18T13:40:38.802Z,5.67
2022-10-18T13:42:33.862Z,6.03
2022-10-18T13:44:28.182Z,5.40
2022-10-18T13:46:01.309Z,6.47
2022-10-18T13:47:36.238Z,4.70
2022-10-18T13:49:25.189Z,5.20
2022-10-18T13:51:12.957Z,4.47
2022-10-18T13:53:31.709Z,4.40
2022-10-18T13:55:22.292Z,4.00
2022-10-18T13:57:25.394Z,3.50
2022-10-18T13:59:30.929Z,3.90
2022-10-18T14:01:19.665Z,4.00
2022-10-18T14:03:31.650Z,4.17
2022-10-18T14:05:25.805Z,5.00
2022-10-18T14:07:04.557Z,5.37
2022-10-18T14:08:42.880Z,5.53
2022-10-18T14:10:29.777Z,6.30
2022-10-18T14:12:26.555Z,5.47
2022-10-18T14:14:09.207Z,4.97
2022-10-18T14:15:46.397Z,5.27
2022-10-18T14:17:29.204Z,6.27
2022-10-18T14:19:15.412Z,5.50
2022-10-18T14:21:12.452Z,6.40
2022-10-18T14:22:51.969Z,6.53
2022-10-18T14:24:27.286Z,5.53
2022-10-18T14:26:08.525Z,4.50
2022-10-18T14:27:41.571Z,5.40
2022-10-18T14:29:19.998Z,4.40
2022-10-18T14:30:57.898Z,5.00
2022-10-18T14:32:33.813Z,5.50
2022-10-18T14:34:12.714Z,4.00
2022-10-18T14:35:59.010Z,3.93
2022-10-18T14:37:35.994Z,3.57
2022-10-18T14:39:21.033Z,4.10
2022-10-18T14:41:06.327Z,4.53
2022-10-18T14:42:49.914Z,4.97
2022-10-18T14:44:27.172Z,4.77
2022-10-18T14:46:11.139Z,4.77
2022-10-18T14:47:46.966Z,3.90
2022-10-18T14:49:21.764Z,4.60
2022-10-18T14:51:00.491Z,3.80
2022-10-18T14:52:35.783Z,3.80
2022-10-18T14:54:16.118Z,4.90
2022-10-18T14:55:57.169Z,4.30
2022-10-18T14:57:33.751Z,4.63
2022-10-18T14:59:17.101Z,5.43
2022-10-18T15:00:50.467Z,5.33
2022-10-18T15:02:26.277Z,5.10
2022-10-18T15:04:01.715Z,4.40
2022-10-18T15:05:34.777Z,5.67
2022-10-18T15:07:15.671Z,5.07
2022-10-18T15:08:52.500Z,4.87
2022-10-18T15:10:30.033Z,5.53
2022-10-18T15:12:04.350Z,6.40
2022-10-18T15:13:43.467Z,5.33
2022-10-18T15:15:20.788Z,5.60
2022-10-18T15:16:57.289Z,5.77
2022-10-18T15:20:22.058Z,6.63
2022-10-18T15:22:19.873Z,5.93
2022-10-18T15:23:50.973Z,4.80
2022-10-18T15:25:32.012Z,5.10
2022-10-18T15:27:15.279Z,5.67
2022-10-18T15:28:53.071Z,5.10
2022-10-18T15:30:28.760Z,6.80
2022-10-18T15:32:09.587Z,5.60
2022-10-18T15:33:42.647Z,6.20
2022-10-18T15:35:24.949Z,6.73
2022-10-18T15:36:59.137Z,6.00
2022-10-18T15:38:32.931Z,5.70
2022-10-18T15:40:20.036Z,5.77
2022-10-18T15:41:56.182Z,4.77
2022-10-18T15:43:36.883Z,4.80
2022-10-18T15:45:31.805Z,5.13
2022-10-18T15:47:21.084Z,5.13
2022-10-18T15:48:54.176Z,6.07
2022-10-18T15:50:41.000Z,4.93
2022-10-18T15:52:39.292Z,5.60
2022-10-18T15:54:19.048Z,7.73
2022-10-18T15:55:53.602Z,9.93
2022-10-18T15:57:31.393Z,7.23
2022-10-18T15:59:06.942Z,6.63
2022-10-18T16:00:40.079Z,6.60
2022-10-18T16:02:15.232Z,6.17
2022-10-18T16:03:49.017Z,7.17
2022-10-18T16:05:22.164Z,6.43
2022-10-18T16:06:56.471Z,6.27
2022-10-18T16:08:30.687Z,6.50
2022-10-18T16:10:12.991Z,6.20
2022-10-18T16:11:47.040Z,7.80
2022-10-18T16:13:21.476Z,7.30
2022-10-18T16:14:54.514Z,7.03
2022-10-18T16:16:29.205Z,8.03
2022-10-18T16:18:02.283Z,8.80
2022-10-18T16:19:35.576Z,8.07
2022-10-18T16:21:20.675Z,7.93
2022-10-18T16:22:53.778Z,9.50
2022-10-18T16:24:27.068Z,11.67
2022-10-18T16:26:00.111Z,10.47
2022-10-18T16:27:33.151Z,10.10
2022-10-18T16:29:08.750Z,10.17
2022-10-18T16:30:44.367Z,12.20
2022-10-18T16:32:17.398Z,9.93
2022-10-18T16:33:51.652Z,12.23
2022-10-18T16:35:23.728Z,11.73
2022-10-18T16:36:57.185Z,9.83
2022-10-18T16:38:34.812Z,10.70
2022-10-18T16:40:23.206Z,10.33
2022-10-18T16:41:56.232Z,11.50
2022-10-18T16:43:29.300Z,12.47
2022-10-18T16:45:03.727Z,15.47
2022-10-18T16:46:36.770Z,13.87
2022-10-18T16:48:14.135Z,11.70
2022-10-18T16:49:47.188Z,16.33
2022-10-18T16:51:20.720Z,16.50
2022-10-18T16:52:53.768Z,11.60
2022-10-18T16:54:26.894Z,12.30
2022-10-18T16:56:01.610Z,11.70
2022-10-18T16:57:33.646Z,14.20
2022-10-18T16:59:06.716Z,16.23
2022-10-18T17:00:41.434Z,20.37
2022-10-18T17:02:14.457Z,17.43
2022-10-18T17:03:48.143Z,17.57
2022-10-18T17:05:21.344Z,15.77
2022-10-18T17:06:58.316Z,13.53
2022-10-18T17:08:31.402Z,15.13
2022-10-18T17:10:03.955Z,14.03
2022-10-18T17:11:36.976Z,12.47
2022-10-18T17:13:10.001Z,15.00
2022-10-18T17:14:43.072Z,12.03
2022-10-18T17:16:24.707Z,11.43
2022-10-18T17:17:59.563Z,10.70
2022-10-18T17:19:32.608Z,13.67
2022-10-18T17:21:05.830Z,11.30
2022-10-18T17:22:38.836Z,9.07
2022-10-18T17:24:11.936Z,8.87
2022-10-18T17:25:57.822Z,11.70
2022-10-18T17:27:39.500Z,11.13
2022-10-18T17:29:12.641Z,10.60
2022-10-18T17:30:46.507Z,8.57
2022-10-18T17:32:20.948Z,8.73
2022-10-18T17:33:54.657Z,8.23
2022-10-18T17:35:27.721Z,8.53
2022-10-18T17:37:00.741Z,8.00
2022-10-18T17:38:33.879Z,9.43
2022-10-18T17:40:08.759Z,8.50
2022-10-18T17:41:41.800Z,13.77
2022-10-18T17:43:14.827Z,13.80
2022-10-18T17:44:48.091Z,16.00
2022-10-18T17:46:21.241Z,12.57
2022-10-18T17:47:55.674Z,13.23
2022-10-18T17:49:28.741Z,12.63
2022-10-18T17:51:01.956Z,11.40
2022-10-18T17:52:35.050Z,11.00
2022-10-18T17:54:08.533Z,9.97
2022-10-18T17:55:41.740Z,8.47
2022-10-18T17:57:16.008Z,8.67
2022-10-18T17:58:51.823Z,8.07
2022-10-18T18:00:25.415Z,8.37
2022-10-18T18:01:58.659Z,8.53
2022-10-18T18:03:33.065Z,9.70
2022-10-18T18:05:06.971Z,8.83
2022-10-18T18:06:41.333Z,7.63
2022-10-18T18:08:14.478Z,7.87
2022-10-18T18:09:47.529Z,7.40
2022-10-18T18:11:20.726Z,8.07
2022-10-18T18:12:53.806Z,7.77
2022-10-18T18:14:26.971Z,8.70
2022-10-18T18:16:09.977Z,8.63
2022-10-18T18:17:55.960Z,8.87
2022-10-18T18:19:31.763Z,8.93
2022-10-18T18:21:04.942Z,8.57
2022-10-18T18:22:41.862Z,8.53
2022-10-18T18:24:17.108Z,11.43
2022-10-18T18:25:56.539Z,9.33
2022-10-18T18:27:29.737Z,9.67
2022-10-18T18:30:41.308Z,8.67
2022-10-18T18:32:14.548Z,8.40
2022-10-18T18:33:47.787Z,12.53
2022-10-18T18:35:22.220Z,11.43
2022-10-18T18:36:55.727Z,10.23
2022-10-18T18:38:28.778Z,10.33
2022-10-18T18:40:02.016Z,10.77
2022-10-18T18:41:35.092Z,11.80
2022-10-18T18:43:22.754Z,10.07
2022-10-18T18:44:56.344Z,9.87
2022-10-18T18:46:32.965Z,10.27
2022-10-18T18:48:06.502Z,10.43
2022-10-18T18:49:39.562Z,10.03
2022-10-18T18:51:16.021Z,10.47
2022-10-18T18:52:49.041Z,11.17
2022-10-18T18:54:22.674Z,10.50
2022-10-18T18:55:55.774Z,10.90
2022-10-18T18:57:29.016Z,9.77
2022-10-18T18:59:02.055Z,11.60
2022-10-18T19:00:35.146Z,10.70
2022-10-18T19:02:08.159Z,10.00
2022-10-18T19:03:42.852Z,9.93
2022-10-18T19:05:16.063Z,10.47
2022-10-18T19:06:50.541Z,10.97
2022-10-18T19:08:22.580Z,11.00
2022-10-18T19:09:55.611Z,11.43
2022-10-18T19:11:31.210Z,11.40
2022-10-18T19:13:04.261Z,10.57
2022-10-18T19:14:37.344Z,10.43
2022-10-18T19:16:23.088Z,10.10
2022-10-18T19:17:57.378Z,12.00
2022-10-18T19:19:31.403Z,8.60
2022-10-18T19:21:03.916Z,9.00
2022-10-18T19:22:38.509Z,10.13
2022-10-18T19:24:11.974Z,10.20
2022-10-18T19:25:44.984Z,11.23
2022-10-18T19:27:18.071Z,9.67
2022-10-18T19:28:50.222Z,9.80
2022-10-18T19:30:23.484Z,7.80
2022-10-18T19:31:58.120Z,9.33
2022-10-18T19:33:41.477Z,8.57
2022-10-18T19:35:24.191Z,7.90
2022-10-18T19:36:57.586Z,11.93
2022-10-18T19:38:31.008Z,9.87
2022-10-18T19:40:04.643Z,9.73
2022-10-18T19:41:36.690Z,8.87
2022-10-18T19:43:09.738Z,9.80
2022-10-18T19:44:43.109Z,9.67
2022-10-18T19:46:16.165Z,9.70
2022-10-18T19:47:49.598Z,10.07
2022-10-18T19:49:22.927Z,8.97
2022-10-18T19:50:55.966Z,8.67
2022-10-18T19:52:29.801Z,8.13
2022-10-18T19:54:04.737Z,7.70
2022-10-18T19:55:37.761Z,7.93
2022-10-18T19:57:10.819Z,8.70
2022-10-18T19:58:43.819Z,6.97
2022-10-18T20:00:19.383Z,7.97
2022-10-18T20:01:52.766Z,8.40
2022-10-18T20:03:25.364Z,11.13
2022-10-18T20:04:58.770Z,8.67
2022-10-18T20:06:32.089Z,8.17
2022-10-18T20:08:05.201Z,11.50
2022-10-18T20:09:39.829Z,7.53
2022-10-18T20:11:15.712Z,8.17
2022-10-18T20:12:48.753Z,7.97
2022-10-18T20:14:22.175Z,10.37
2022-10-18T20:15:55.236Z,13.10
2022-10-18T20:17:28.298Z,10.60
2022-10-18T20:19:03.147Z,12.97
2022-10-18T20:20:36.851Z,8.60
2022-10-18T20:22:09.934Z,8.90
2022-10-18T20:23:44.288Z,10.60
2022-10-18T20:25:18.833Z,12.03
2022-10-18T20:28:26.226Z,16.90
2022-10-18T20:29:59.317Z,16.60
2022-10-18T20:31:35.496Z,14.60
2022-10-18T20:33:08.555Z,16.60
2022-10-18T20:34:41.589Z,14.73
2022-10-18T20:36:16.842Z,20.13
2022-10-18T20:37:50.189Z,19.73
2022-10-18T20:39:23.981Z,16.50
2022-10-18T20:41:03.367Z,16.40
2022-10-18T20:42:36.427Z,22.67
2022-10-18T20:44:13.716Z,16.03
2022-10-18T20:45:46.740Z,19.60
2022-10-18T20:47:18.810Z,19.57
2022-10-18T20:48:52.803Z,16.63
2022-10-18T20:50:25.822Z,16.77
2022-10-18T20:51:58.853Z,19.07
2022-10-18T20:53:31.933Z,13.90
2022-10-18T20:55:05.659Z,15.70
2022-10-18T20:56:40.357Z,18.87
2022-10-18T20:58:13.574Z,16.97
2022-10-18T20:59:46.769Z,17.77
2022-10-18T21:01:22.065Z,17.43
2022-10-18T21:02:58.513Z,22.77
2022-10-18T21:04:31.592Z,25.47
2022-10-18T21:06:09.195Z,29.83
2022-10-18T21:07:42.239Z,26.97
2022-10-18T21:09:18.009Z,19.47